VATSIM Germany Forum

Zurück   VATSIM Germany Forum > Community > Events

Events Ankündigungen von Events, Checkouts, TV-Terminen, usw.

Antwort
 
LinkBack Themen-Optionen Ansicht
Alt 2019-03-25, 16:40   #261 (permalink)
VATSIM Germany RG München Chief
 
Benutzerbild von Dietmar Brinschwitz
 
Registriert seit: 2005-09-03
Ort: Ansbach
Alter: 57
Beiträge: 1.654
Danke erteilt: 3.951
2.451 Danksagungen in 929 Beiträgen erhalten
Standard

Wir trotzen dem schlechten Wetter, denn heute ist wieder ein NüMo

Gute Laune werdet ihr auf unseren Frequenzen vernehmen bei allen Anflügen oder Abflügen von unseren Albrecht-Dürer-Airport.

Auch wenns Wetter holprige Anflüge bietet:
Zitat:
DDN 251520Z 30007KT 270V340 9999 FEW008 SCT010CB 05/02 Q1019 NOSIG

TAF EDDN 251100Z 2512/2612 28015G30KT 9999 SCT035
TEMPO 2512/2518 28020G35KT 4000 SHRAGS BKN020CB
PROB30
TEMPO 2512/2517 29025G40KT 1400 TSGS BKN012CB
BECMG 2518/2521 30007KT
PROB40
TEMPO 2518/2521 2500 SHSNGS BKN015CB
PROB30
TEMPO 2603/2607 BKN010
Rein in alle fliegenden Kisten und auf nach/von EDDN
__________________
RG Chief EDMM
Dietmar Brinschwitz ist offline   Mit Zitat antworten
Danksagungen
Alt 2019-04-01, 18:44   #262 (permalink)
VATSIM Germany RG München Chief
 
Benutzerbild von Dietmar Brinschwitz
 
Registriert seit: 2005-09-03
Ort: Ansbach
Alter: 57
Beiträge: 1.654
Danke erteilt: 3.951
2.451 Danksagungen in 929 Beiträgen erhalten
Standard

Frühlingsgefühle überall.....

Also dann packt den Flieger aus und für einen kleinen IFR/VFR Flug nach/von EDDN reicht es allemal. Im Landeanflug das bunte Treiben auf den Feldern des Knoblauchslandes zu beobachten ist sicherlich wunderschön.

Wettertechnisch sind wir heute auf der sicheren/schönen Seite:
Zitat:
EDDN 011620Z 07007KT 020V120 CAVOK 15/04 Q1017 NOSIG

TAF EDDN 011100Z 0112/0212 07010KT CAVOK
BECMG 0118/0120 09004KT
BECMG 0207/0209 16006KT
__________________
RG Chief EDMM
Dietmar Brinschwitz ist offline   Mit Zitat antworten
Alt 2019-04-08, 15:39   #263 (permalink)
VATSIM Germany RG München Chief
 
Benutzerbild von Dietmar Brinschwitz
 
Registriert seit: 2005-09-03
Ort: Ansbach
Alter: 57
Beiträge: 1.654
Danke erteilt: 3.951
2.451 Danksagungen in 929 Beiträgen erhalten
Standard

Heute kommen die "Rotterdammer" dran!

siehe: https://board.vacc-sag.org/16/63713/

Wetter:
Zitat:
EDDN 081320Z 29005KT 210V350 9999 SCT039 16/07 Q1009 NOSIG

TAF EDDN 081100Z 0812/0912 VRB03KT 9999 SCT025
TEMPO 0812/0816 27005KT
BECMG 0908/0910 05005KT
PROB30
TEMPO 0910/0912 SHRA BKN030CB
und
Zitat:
EHRD 081325Z AUTO 27009KT 240V310 7000 NCD 17/11 Q1010 NOSIG

TAF COR EHRD 081014Z 0812/0918 05009KT CAVOK
PROB40 0812/0818 34006KT 6000 NSC
BECMG 0903/0906 06015KT
TEMPO 0906/0918 06017G27KT
Wir hören uns später
__________________
RG Chief EDMM
Dietmar Brinschwitz ist offline   Mit Zitat antworten
Alt 2019-04-15, 19:14   #264 (permalink)
VATSIM Germany RG München Chief
 
Benutzerbild von Dietmar Brinschwitz
 
Registriert seit: 2005-09-03
Ort: Ansbach
Alter: 57
Beiträge: 1.654
Danke erteilt: 3.951
2.451 Danksagungen in 929 Beiträgen erhalten
Standard

NüMo wie gewohnt

Wir sind in Kürze mit etsprechender ATC-Würze auf der Welle.

Heute zu empfehlen ein Shuttle mit den Kollegen in Düsseldorf, gwürzt mit einigen (hoffentlich vorhandenen) VFR Fliegern in der Kontrollzone.

Salz in der Suppe gibts heute bei stetigem Ostwind:
Zitat:
EDDN 151650Z 09009KT CAVOK 15/M05 Q1019 NOSIG

TAF EDDN 151100Z 1512/1612 09009KT CAVOK
BECMG 1517/1519 08004KT
BECMG 1608/1610 10009KT
__________________
RG Chief EDMM
Dietmar Brinschwitz ist offline   Mit Zitat antworten
Danksagungen
Alt 2019-04-22, 18:49   #265 (permalink)
VATSIM Germany RG München Chief
 
Benutzerbild von Dietmar Brinschwitz
 
Registriert seit: 2005-09-03
Ort: Ansbach
Alter: 57
Beiträge: 1.654
Danke erteilt: 3.951
2.451 Danksagungen in 929 Beiträgen erhalten
Standard

Buntes Ostereiersuchen oder wildes Vectorieren um Rauchsäulen der traditionelle Osterfeuer herum erwartet Euch heute im Frankenland.

Wettertechnisch leichte Osterbrise zu erwarten:
Zitat:
EDDN 221620Z 08013KT CAVOK 21/01 Q1006 NOSIG

TAF EDDN 221100Z 2212/2312 09010KT CAVOK
BECMG 2220/2222 08005KT
BECMG 2307/2309 10010KT
Bis gleich auf der Welle.
__________________
RG Chief EDMM
Dietmar Brinschwitz ist offline   Mit Zitat antworten
Antwort

  VATSIM Germany Forum > Community > Events


Themen-Optionen
Ansicht

Forumregeln
Es ist dir nicht erlaubt, neue Themen zu verfassen.
Es ist dir nicht erlaubt, auf Beiträge zu antworten.
Es ist dir nicht erlaubt, Anhänge hochzuladen.
Es ist dir nicht erlaubt, deine Beiträge zu bearbeiten.

BB-Code ist an.
Smileys sind an.
[IMG] Code ist an.
HTML-Code ist aus.
Trackbacks are an
Pingbacks are an
Refbacks are an



Alle Zeitangaben in WEZ +2. Es ist jetzt 15:41 Uhr.


Powered by vBulletin® Version 3.8.4 (Deutsch)
Copyright ©2000 - 2019, Jelsoft Enterprises Ltd.
Template-Modifikationen durch TMS
© 2006 - 2018 vatsim-germany.org